createdAt,value
2024-01-16T00:01:47.899Z,1.00
2024-01-16T00:04:14.362Z,1.17
2024-01-16T00:06:41.635Z,1.15
2024-01-16T00:09:08.711Z,1.00
2024-01-16T00:11:35.182Z,0.80
2024-01-16T00:14:01.705Z,1.02
2024-01-16T00:16:28.142Z,0.83
2024-01-16T00:18:54.634Z,0.88
2024-01-16T00:21:21.061Z,1.00
2024-01-16T00:23:47.663Z,1.10
2024-01-16T00:26:21.112Z,0.98
2024-01-16T00:28:47.555Z,0.90
2024-01-16T00:31:13.953Z,0.57
2024-01-16T00:33:40.898Z,0.57
2024-01-16T00:36:07.543Z,0.88
2024-01-16T00:38:34.318Z,0.68
2024-01-16T00:41:00.752Z,1.10
2024-01-16T00:43:27.422Z,0.63
2024-01-16T00:45:53.824Z,0.40
2024-01-16T00:48:21.985Z,0.70
2024-01-16T00:50:50.518Z,0.57
2024-01-16T00:53:17.353Z,0.73
2024-01-16T00:55:43.786Z,0.40
2024-01-16T00:58:10.273Z,0.60
2024-01-16T01:00:38.393Z,0.52
2024-01-16T01:03:05.482Z,0.77
2024-01-16T01:05:32.133Z,0.97
2024-01-16T01:07:59.089Z,0.45
2024-01-16T01:10:25.767Z,0.45
2024-01-16T01:12:54.355Z,0.95
2024-01-16T01:15:21.918Z,0.95
2024-01-16T01:17:50.251Z,0.77
2024-01-16T01:20:19.412Z,0.47
2024-01-16T01:22:46.175Z,0.50
2024-01-16T01:25:13.140Z,0.75
2024-01-16T01:27:40.235Z,0.57
2024-01-16T01:30:11.756Z,7.53
2024-01-16T01:32:38.715Z,17.73
2024-01-16T01:35:05.759Z,20.33
2024-01-16T01:37:32.634Z,20.58
2024-01-16T01:39:59.051Z,20.10
2024-01-16T01:42:25.454Z,17.80
2024-01-16T01:44:51.930Z,14.90
2024-01-16T01:47:18.636Z,12.23
2024-01-16T01:49:45.144Z,13.75
2024-01-16T01:52:11.625Z,24.77
2024-01-16T01:54:38.544Z,26.60
2024-01-16T01:57:05.135Z,25.05
2024-01-16T01:59:32.181Z,22.13
2024-01-16T02:01:58.827Z,25.63
2024-01-16T02:04:26.050Z,21.23
2024-01-16T02:06:52.589Z,19.30
2024-01-16T02:09:19.209Z,15.98
2024-01-16T02:11:45.913Z,15.32
2024-01-16T02:14:13.013Z,13.60
2024-01-16T02:16:40.387Z,11.65
2024-01-16T02:19:07.424Z,10.43
2024-01-16T02:21:54.112Z,12.45
2024-01-16T02:24:20.714Z,19.88
2024-01-16T02:26:47.288Z,25.65
2024-01-16T02:29:14.265Z,24.77
2024-01-16T02:31:40.851Z,24.17
2024-01-16T02:34:07.483Z,20.77
2024-01-16T02:36:34.385Z,17.67
2024-01-16T02:39:00.903Z,15.25
2024-01-16T02:41:27.539Z,27.30
2024-01-16T02:43:53.982Z,36.57
2024-01-16T02:46:20.461Z,35.55
2024-01-16T02:48:47.656Z,30.23
2024-01-16T02:51:14.443Z,28.05
2024-01-16T02:53:41.017Z,27.00
2024-01-16T02:56:08.726Z,26.63
2024-01-16T02:58:35.177Z,23.65
2024-01-16T03:01:01.615Z,20.48
2024-01-16T03:03:28.131Z,32.53
2024-01-16T03:05:57.391Z,43.85
2024-01-16T03:08:23.989Z,41.50
2024-01-16T03:10:50.734Z,44.47
2024-01-16T03:13:17.165Z,36.45
2024-01-16T03:15:43.555Z,32.17
2024-01-16T03:18:10.324Z,30.65
2024-01-16T03:20:36.940Z,28.63
2024-01-16T03:23:03.429Z,25.58
2024-01-16T03:25:29.919Z,21.73
2024-01-16T03:27:56.344Z,20.85
2024-01-16T03:30:23.982Z,18.55
2024-01-16T03:32:50.538Z,15.13
2024-01-16T03:35:17.092Z,13.75
2024-01-16T03:37:43.499Z,11.57
2024-01-16T03:40:10.174Z,10.20
2024-01-16T03:42:36.694Z,9.98
2024-01-16T03:45:03.089Z,31.43
2024-01-16T03:47:29.557Z,42.88
2024-01-16T03:49:55.988Z,41.65
2024-01-16T03:52:22.392Z,39.10
2024-01-16T03:54:48.774Z,38.00
2024-01-16T03:57:15.250Z,33.10
2024-01-16T03:59:41.766Z,28.75
2024-01-16T04:02:08.243Z,24.75
2024-01-16T04:04:34.696Z,25.38
2024-01-16T04:07:01.185Z,23.05
2024-01-16T04:09:27.653Z,18.20
2024-01-16T04:11:54.117Z,35.80
2024-01-16T04:14:21.039Z,39.55
2024-01-16T04:16:47.772Z,41.08
2024-01-16T04:19:14.271Z,46.70
2024-01-16T04:21:40.783Z,39.70
2024-01-16T04:24:07.242Z,32.67
2024-01-16T04:26:33.705Z,33.05
2024-01-16T04:29:01.107Z,29.52
2024-01-16T04:31:27.501Z,24.65
2024-01-16T04:33:54.017Z,24.53
2024-01-16T04:36:20.477Z,23.30
2024-01-16T04:38:47.016Z,36.38
2024-01-16T04:41:13.494Z,47.40
2024-01-16T04:43:39.914Z,45.95
2024-01-16T04:46:06.331Z,44.20
2024-01-16T04:48:32.834Z,37.25
2024-01-16T04:50:59.285Z,31.15
2024-01-16T04:53:25.809Z,27.83
2024-01-16T04:55:52.309Z,28.60
2024-01-16T04:58:20.053Z,26.60
2024-01-16T05:00:46.981Z,23.10
2024-01-16T05:03:13.470Z,21.50
2024-01-16T05:05:40.016Z,31.00
2024-01-16T05:08:06.561Z,44.53
2024-01-16T05:10:33.045Z,47.73
2024-01-16T05:12:59.410Z,40.53
2024-01-16T05:15:25.865Z,38.22
2024-01-16T05:17:52.425Z,31.65
2024-01-16T05:20:18.999Z,27.35
2024-01-16T05:22:45.489Z,29.70
2024-01-16T05:25:11.978Z,24.33
2024-01-16T05:27:38.403Z,22.85
2024-01-16T05:30:05.395Z,18.92
2024-01-16T05:32:32.010Z,17.60
2024-01-16T05:34:58.569Z,17.73
2024-01-16T05:37:25.051Z,15.57
2024-01-16T05:39:51.459Z,14.80
2024-01-16T05:42:18.560Z,12.90
2024-01-16T05:44:45.048Z,12.20
2024-01-16T05:47:11.683Z,10.17
2024-01-16T05:49:38.197Z,8.73
2024-01-16T05:52:04.749Z,20.05
2024-01-16T05:54:31.212Z,36.75
2024-01-16T05:56:57.703Z,35.22
2024-01-16T05:59:24.246Z,34.27
2024-01-16T06:01:50.654Z,30.15
2024-01-16T06:04:17.083Z,26.77
2024-01-16T06:06:49.108Z,26.45
2024-01-16T06:09:16.387Z,22.92
2024-01-16T06:11:42.843Z,21.13
2024-01-16T06:14:09.555Z,17.83
2024-01-16T06:16:36.725Z,15.93
2024-01-16T06:19:03.232Z,16.05
2024-01-16T06:21:29.839Z,19.70
2024-01-16T06:23:56.402Z,42.70
2024-01-16T06:26:22.940Z,46.67
2024-01-16T06:28:49.460Z,42.75
2024-01-16T06:31:17.209Z,35.28
2024-01-16T06:33:43.885Z,36.63
2024-01-16T06:36:10.476Z,31.43
2024-01-16T06:38:39.021Z,28.67
2024-01-16T06:41:05.483Z,25.33
2024-01-16T06:43:31.925Z,24.27
2024-01-16T06:45:58.379Z,26.25
2024-01-16T06:48:25.235Z,29.33
2024-01-16T06:50:51.796Z,22.38
2024-01-16T06:53:18.325Z,21.45
2024-01-16T06:55:44.780Z,24.40
2024-01-16T06:58:11.426Z,18.17
2024-01-16T07:00:38.020Z,18.43
2024-01-16T07:03:04.650Z,20.20
2024-01-16T07:05:31.217Z,17.33
2024-01-16T07:07:57.811Z,16.85
2024-01-16T07:10:25.319Z,15.32
2024-01-16T07:12:52.681Z,13.30
2024-01-16T07:15:19.789Z,10.77
2024-01-16T07:17:46.491Z,9.43
2024-01-16T07:20:13.224Z,8.63
2024-01-16T07:22:40.728Z,8.35
2024-01-16T07:25:07.878Z,7.13
2024-01-16T07:27:35.101Z,6.05
2024-01-16T07:30:01.886Z,5.22
2024-01-16T07:32:30.121Z,5.30
2024-01-16T07:34:58.106Z,5.57
2024-01-16T07:37:24.495Z,5.57
2024-01-16T07:39:50.957Z,4.88
2024-01-16T07:42:17.413Z,3.30
2024-01-16T07:44:43.875Z,3.67
2024-01-16T07:47:10.325Z,3.58
2024-01-16T07:49:36.804Z,3.53
2024-01-16T07:52:03.325Z,2.88
2024-01-16T07:54:29.935Z,1.60
2024-01-16T07:56:56.596Z,2.45
2024-01-16T07:59:23.236Z,2.08
2024-01-16T08:01:50.580Z,1.93
2024-01-16T08:04:17.140Z,1.60
2024-01-16T08:06:43.759Z,1.48
2024-01-16T08:09:13.191Z,1.77
2024-01-16T08:11:40.763Z,1.40
2024-01-16T08:14:07.284Z,0.87
2024-01-16T08:16:33.849Z,0.77
2024-01-16T08:19:00.372Z,1.63
2024-01-16T08:21:27.324Z,1.20
2024-01-16T08:23:53.895Z,1.27
2024-01-16T08:26:20.536Z,0.73
2024-01-16T08:28:47.206Z,0.95
2024-01-16T08:31:13.644Z,0.63
2024-01-16T08:33:45.982Z,0.32
2024-01-16T08:36:14.496Z,0.60
2024-01-16T08:38:42.144Z,1.10
2024-01-16T08:41:08.847Z,0.60
2024-01-16T08:43:35.571Z,6.95
2024-01-16T08:46:02.203Z,8.60
2024-01-16T08:48:28.729Z,12.77
2024-01-16T08:50:55.381Z,15.63
2024-01-16T08:53:24.466Z,17.52
2024-01-16T08:55:51.126Z,18.17
2024-01-16T08:58:17.551Z,19.63
2024-01-16T09:00:43.994Z,21.95
2024-01-16T09:03:10.496Z,18.83
2024-01-16T09:05:40.323Z,18.05
2024-01-16T09:08:08.096Z,14.13
2024-01-16T09:10:35.865Z,13.93
2024-01-16T09:13:02.460Z,10.23
2024-01-16T09:15:28.853Z,11.10
2024-01-16T09:17:55.377Z,28.83
2024-01-16T09:20:21.903Z,23.65
2024-01-16T09:22:48.336Z,27.50
2024-01-16T09:25:14.800Z,25.02
2024-01-16T09:27:41.200Z,23.93
2024-01-16T09:30:08.602Z,21.50
2024-01-16T09:32:36.331Z,20.98
2024-01-16T09:35:05.652Z,9.65
2024-01-16T09:37:32.180Z,21.00
2024-01-16T09:39:58.658Z,27.50
2024-01-16T09:42:25.741Z,53.35
2024-01-16T09:44:53.257Z,60.75
2024-01-16T09:47:20.035Z,51.95
2024-01-16T09:49:47.450Z,52.08
2024-01-16T09:52:13.949Z,64.00
2024-01-16T09:54:40.467Z,57.10
2024-01-16T09:57:07.992Z,49.83
2024-01-16T09:59:36.941Z,49.03
2024-01-16T10:02:07.800Z,42.38
2024-01-16T10:04:35.320Z,34.10
2024-01-16T10:07:02.745Z,25.40
2024-01-16T10:09:29.369Z,25.95
2024-01-16T10:11:55.984Z,22.65
2024-01-16T10:14:22.480Z,18.70
2024-01-16T10:17:11.166Z,19.97
2024-01-16T10:19:49.161Z,25.50
2024-01-16T10:22:23.593Z,31.90
2024-01-16T10:25:04.910Z,35.42
2024-01-16T10:27:32.321Z,43.40
2024-01-16T10:29:59.400Z,43.00
2024-01-16T10:32:31.129Z,37.42
2024-01-16T10:35:07.801Z,31.92
2024-01-16T10:37:44.663Z,28.42
2024-01-16T10:40:12.347Z,28.67
2024-01-16T10:42:39.636Z,30.73
2024-01-16T10:45:06.837Z,26.80
2024-01-16T10:47:38.244Z,22.65
2024-01-16T10:50:07.589Z,21.67
2024-01-16T10:52:34.661Z,19.67
2024-01-16T10:55:05.091Z,17.07
2024-01-16T10:57:32.761Z,17.75
2024-01-16T11:00:09.349Z,19.38
2024-01-16T11:02:44.532Z,17.60
2024-01-16T11:05:12.535Z,15.25
2024-01-16T11:07:40.656Z,12.73
2024-01-16T11:10:08.098Z,8.73
2024-01-16T11:12:34.726Z,12.45
2024-01-16T11:15:02.507Z,13.25
2024-01-16T11:17:31.043Z,12.73
2024-01-16T11:20:10.424Z,12.33
2024-01-16T11:22:46.013Z,9.52
2024-01-16T11:25:13.378Z,5.70
2024-01-16T11:27:40.288Z,6.88
2024-01-16T11:30:08.344Z,5.72
2024-01-16T11:32:39.633Z,6.60
2024-01-16T11:35:07.361Z,5.22
2024-01-16T11:37:34.559Z,2.50
2024-01-16T11:40:22.488Z,1.13
2024-01-16T11:42:50.185Z,3.65
2024-01-16T11:45:28.939Z,1.07
2024-01-16T11:48:11.486Z,5.25
2024-01-16T11:50:38.229Z,6.32
2024-01-16T11:53:07.970Z,6.32
2024-01-16T11:55:36.672Z,8.35
2024-01-16T11:58:21.966Z,9.17
2024-01-16T12:00:52.341Z,6.75
2024-01-16T12:03:31.418Z,6.05
2024-01-16T12:06:01.841Z,5.43
2024-01-16T12:08:29.578Z,5.53
2024-01-16T12:10:56.218Z,5.27
2024-01-16T12:13:22.708Z,4.45
2024-01-16T12:15:49.111Z,3.50
2024-01-16T12:20:45.935Z,3.03
2024-01-16T12:23:12.762Z,2.50
2024-01-16T12:26:01.115Z,0.95
2024-01-16T12:28:32.222Z,1.20
2024-01-16T12:31:00.769Z,1.33
2024-01-16T12:33:28.630Z,1.88
2024-01-16T12:36:02.779Z,1.93
2024-01-16T12:38:29.302Z,1.75
2024-01-16T12:40:55.816Z,1.70
2024-01-16T12:43:22.506Z,1.42
2024-01-16T12:45:56.348Z,1.33
2024-01-16T12:48:29.659Z,1.23
2024-01-16T12:51:04.738Z,1.05
2024-01-16T12:53:37.886Z,1.50
2024-01-16T12:56:04.886Z,1.15
2024-01-16T12:58:35.903Z,1.33
2024-01-16T13:01:31.468Z,1.60
2024-01-16T13:04:05.092Z,1.55
2024-01-16T13:06:31.727Z,1.10
2024-01-16T13:09:12.449Z,1.40
2024-01-16T13:11:52.952Z,1.40
2024-01-16T13:14:22.067Z,1.43
2024-01-16T13:16:52.526Z,0.95
2024-01-16T13:19:19.929Z,1.40
2024-01-16T13:21:46.579Z,1.27
2024-01-16T13:24:14.528Z,1.13
2024-01-16T13:26:41.002Z,0.73
2024-01-16T13:29:07.441Z,1.40
2024-01-16T13:31:34.073Z,1.10
2024-01-16T13:34:00.855Z,1.02
2024-01-16T13:36:46.791Z,0.63
2024-01-16T13:39:15.784Z,1.20
2024-01-16T13:41:43.469Z,1.90
2024-01-16T13:44:09.939Z,0.70
2024-01-16T13:46:49.900Z,1.10
2024-01-16T13:49:23.894Z,1.00
2024-01-16T13:51:50.568Z,1.40
2024-01-16T13:54:17.366Z,1.55
2024-01-16T13:56:58.658Z,1.35
2024-01-16T13:59:31.632Z,1.60
2024-01-16T14:01:58.080Z,1.25
2024-01-16T14:04:24.533Z,1.53
2024-01-16T14:07:03.651Z,1.55
2024-01-16T14:09:37.556Z,1.67
2024-01-16T14:12:04.208Z,2.05
2024-01-16T14:14:31.812Z,1.50
2024-01-16T14:17:01.589Z,1.40
2024-01-16T14:19:31.064Z,1.33
2024-01-16T14:21:57.964Z,1.10
2024-01-16T14:24:24.373Z,1.60
2024-01-16T14:26:50.865Z,1.10
2024-01-16T14:29:17.447Z,1.47
2024-01-16T14:31:44.359Z,2.33
2024-01-16T14:34:16.839Z,0.95
2024-01-16T14:36:43.386Z,2.15
2024-01-16T14:39:14.306Z,1.85
2024-01-16T14:41:42.241Z,2.00
2024-01-16T14:44:10.860Z,0.80
2024-01-16T14:46:37.549Z,1.30
2024-01-16T14:49:04.176Z,1.13
2024-01-16T14:51:30.863Z,0.80
2024-01-16T14:53:57.483Z,1.00
2024-01-16T14:56:24.188Z,0.80
2024-01-16T14:58:50.620Z,0.77
2024-01-16T15:01:18.658Z,0.93
2024-01-16T15:03:45.153Z,1.80
2024-01-16T15:06:14.686Z,0.97
2024-01-16T15:08:41.271Z,0.85
2024-01-16T15:11:08.579Z,0.98
2024-01-16T15:13:35.073Z,1.55
2024-01-16T15:16:01.789Z,1.90
2024-01-16T15:18:29.010Z,1.77
2024-01-16T15:20:56.456Z,1.83
2024-01-16T15:23:24.393Z,1.58
2024-01-16T15:25:50.963Z,1.52
2024-01-16T15:28:17.408Z,1.70
2024-01-16T15:30:44.165Z,0.97
2024-01-16T15:33:10.842Z,1.58
2024-01-16T15:35:38.381Z,0.82
2024-01-16T15:38:04.847Z,0.95
2024-01-16T15:40:31.698Z,0.77
2024-01-16T15:42:58.615Z,0.80
2024-01-16T15:45:27.701Z,0.82
2024-01-16T15:47:55.250Z,0.68
2024-01-16T15:50:22.241Z,0.73
2024-01-16T15:52:49.750Z,0.68
2024-01-16T15:55:16.195Z,0.90
2024-01-16T15:57:42.614Z,0.95
2024-01-16T16:00:10.806Z,2.22
2024-01-16T16:02:38.320Z,1.95
2024-01-16T16:05:04.950Z,1.23
2024-01-16T16:07:31.457Z,1.63
2024-01-16T16:09:57.862Z,1.63
2024-01-16T16:12:24.285Z,1.45
2024-01-16T16:14:50.842Z,4.38
2024-01-16T16:17:17.601Z,8.43
2024-01-16T16:19:44.093Z,2.37
2024-01-16T16:22:10.650Z,2.20
2024-01-16T16:24:37.172Z,9.65
2024-01-16T16:27:05.971Z,13.93
2024-01-16T16:29:32.527Z,12.40
2024-01-16T16:31:59.434Z,12.20
2024-01-16T16:34:26.225Z,11.38
2024-01-16T16:36:52.852Z,10.15
2024-01-16T16:39:19.433Z,5.13
2024-01-16T16:41:45.997Z,8.52
2024-01-16T16:44:12.501Z,8.10
2024-01-16T16:46:39.778Z,12.13
2024-01-16T16:49:06.411Z,18.08
2024-01-16T16:51:35.054Z,3.15
2024-01-16T16:54:01.523Z,14.05
2024-01-16T16:56:28.032Z,13.40
2024-01-16T16:58:54.465Z,14.75
2024-01-16T17:01:21.074Z,13.38
2024-01-16T17:03:50.110Z,23.88
2024-01-16T17:06:16.874Z,19.60
2024-01-16T17:08:46.178Z,3.60
2024-01-16T17:11:13.732Z,5.93
2024-01-16T17:13:41.517Z,12.90
2024-01-16T17:16:10.794Z,3.88
2024-01-16T17:18:39.292Z,2.40
2024-01-16T17:21:06.770Z,2.00
2024-01-16T17:23:33.898Z,13.57
2024-01-16T17:26:00.869Z,21.08
2024-01-16T17:28:29.230Z,7.22
2024-01-16T17:30:56.272Z,2.10
2024-01-16T17:33:23.645Z,6.27
2024-01-16T17:35:50.564Z,17.67
2024-01-16T17:38:21.655Z,3.28
2024-01-16T17:40:49.858Z,1.80
2024-01-16T17:43:16.448Z,3.60
2024-01-16T17:45:44.478Z,12.57
2024-01-16T17:48:11.686Z,11.95
2024-01-16T17:50:38.368Z,11.60
2024-01-16T17:53:07.822Z,17.05
2024-01-16T17:55:35.009Z,19.67
2024-01-16T17:58:01.969Z,6.30
2024-01-16T18:00:32.948Z,6.55
2024-01-16T18:02:59.752Z,25.63
2024-01-16T18:05:30.589Z,2.15
2024-01-16T18:07:57.297Z,1.90
2024-01-16T18:10:23.794Z,29.43
2024-01-16T18:12:50.710Z,5.15
2024-01-16T18:15:17.125Z,1.80
2024-01-16T18:17:46.944Z,28.17
2024-01-16T18:20:17.697Z,3.28
2024-01-16T18:22:44.481Z,2.50
2024-01-16T18:25:11.055Z,3.22
2024-01-16T18:27:38.023Z,2.05
2024-01-16T18:30:07.716Z,1.40
2024-01-16T18:32:34.528Z,7.65
2024-01-16T18:35:01.014Z,4.87
2024-01-16T18:37:27.412Z,5.22
2024-01-16T18:39:54.360Z,17.98
2024-01-16T18:42:23.729Z,20.80
2024-01-16T18:44:50.237Z,5.55
2024-01-16T18:47:21.698Z,8.50
2024-01-16T18:49:49.080Z,2.33
2024-01-16T18:52:16.344Z,6.40
2024-01-16T18:54:42.754Z,14.88
2024-01-16T18:57:09.250Z,12.80
2024-01-16T18:59:35.723Z,2.53
2024-01-16T19:02:04.219Z,6.75
2024-01-16T19:04:33.633Z,5.65
2024-01-16T19:07:01.318Z,2.28
2024-01-16T19:09:33.068Z,2.00
2024-01-16T19:11:59.554Z,7.27
2024-01-16T19:14:26.000Z,13.63
2024-01-16T19:16:52.496Z,14.95
2024-01-16T19:19:21.555Z,2.10
2024-01-16T19:21:48.144Z,3.05
2024-01-16T19:24:15.939Z,3.03
2024-01-16T19:26:44.683Z,1.85
2024-01-16T19:29:11.159Z,21.02
2024-01-16T19:31:37.542Z,17.67
2024-01-16T19:34:05.541Z,1.95
2024-01-16T19:36:32.021Z,2.27
2024-01-16T19:38:58.579Z,2.35
2024-01-16T19:41:25.398Z,8.55
2024-01-16T19:43:51.875Z,11.93
2024-01-16T19:46:18.316Z,12.07
2024-01-16T19:48:44.930Z,12.53
2024-01-16T19:51:11.540Z,13.10
2024-01-16T19:53:39.624Z,7.47
2024-01-16T19:56:08.314Z,1.65
2024-01-16T19:58:36.449Z,20.55
2024-01-16T20:01:03.898Z,24.20
2024-01-16T20:03:32.266Z,9.65
2024-01-16T20:05:58.966Z,17.30
2024-01-16T20:08:27.256Z,16.77
2024-01-16T20:10:53.847Z,14.15
2024-01-16T20:13:20.267Z,12.40
2024-01-16T20:15:47.111Z,1.90
2024-01-16T20:18:13.729Z,14.32
2024-01-16T20:20:40.354Z,24.13
2024-01-16T20:23:07.378Z,24.27
2024-01-16T20:25:33.769Z,1.17
2024-01-16T20:28:04.804Z,12.27
2024-01-16T20:30:31.589Z,20.02
2024-01-16T20:32:58.314Z,1.55
2024-01-16T20:35:25.238Z,6.78
2024-01-16T20:37:51.768Z,1.70
2024-01-16T20:40:18.229Z,1.50
2024-01-16T20:42:44.884Z,7.68
2024-01-16T20:45:11.405Z,12.30
2024-01-16T20:47:38.907Z,4.13
2024-01-16T20:50:06.903Z,18.27
2024-01-16T20:52:34.607Z,10.65
2024-01-16T20:55:04.973Z,1.77
2024-01-16T20:57:33.363Z,18.85
2024-01-16T20:59:59.948Z,20.67
2024-01-16T21:02:26.454Z,2.00
2024-01-16T21:04:52.959Z,2.10
2024-01-16T21:07:19.948Z,6.50
2024-01-16T21:09:46.517Z,25.83
2024-01-16T21:12:14.126Z,5.85
2024-01-16T21:14:40.630Z,1.67
2024-01-16T21:17:08.382Z,18.30
2024-01-16T21:19:36.536Z,4.95
2024-01-16T21:22:03.125Z,11.23
2024-01-16T21:24:29.801Z,14.77
2024-01-16T21:26:56.993Z,14.33
2024-01-16T21:29:25.502Z,15.40
2024-01-16T21:31:54.285Z,17.85
2024-01-16T21:34:24.446Z,19.02
2024-01-16T21:36:52.952Z,24.45
2024-01-16T21:39:21.200Z,26.13
2024-01-16T21:41:47.777Z,22.60
2024-01-16T21:44:14.686Z,10.55
2024-01-16T21:46:43.129Z,7.47
2024-01-16T21:49:10.326Z,16.02
2024-01-16T21:51:36.958Z,19.93
2024-01-16T21:54:04.233Z,24.55
2024-01-16T21:56:30.699Z,20.52
2024-01-16T21:58:57.579Z,3.35
2024-01-16T22:01:24.002Z,14.18
2024-01-16T22:03:51.169Z,13.33
2024-01-16T22:06:17.901Z,10.02
2024-01-16T22:08:51.520Z,6.70
2024-01-16T22:11:18.038Z,13.43
2024-01-16T22:13:45.411Z,15.27
2024-01-16T22:16:12.217Z,14.70
2024-01-16T22:18:38.848Z,12.85
2024-01-16T22:21:06.084Z,5.65
2024-01-16T22:23:32.624Z,10.45
2024-01-16T22:26:01.418Z,6.88
2024-01-16T22:28:30.955Z,3.77
2024-01-16T22:30:57.477Z,4.97
2024-01-16T22:33:24.654Z,2.55
2024-01-16T22:35:51.374Z,6.22
2024-01-16T22:38:19.407Z,2.80
2024-01-16T22:40:46.164Z,5.77
2024-01-16T22:43:12.614Z,4.90
2024-01-16T22:45:39.082Z,6.00
2024-01-16T22:48:09.973Z,2.28
2024-01-16T22:50:36.494Z,3.10
2024-01-16T22:53:03.819Z,4.70
2024-01-16T22:55:30.269Z,10.93
2024-01-16T22:57:56.676Z,3.00
2024-01-16T23:00:23.132Z,4.75
2024-01-16T23:02:49.803Z,27.00
2024-01-16T23:05:17.105Z,37.97
2024-01-16T23:07:45.623Z,6.93
2024-01-16T23:10:15.851Z,19.02
2024-01-16T23:12:43.946Z,10.27
2024-01-16T23:15:11.567Z,21.90
2024-01-16T23:17:39.575Z,2.10
2024-01-16T23:20:09.837Z,15.55
2024-01-16T23:22:36.381Z,10.40
2024-01-16T23:25:03.327Z,1.55
2024-01-16T23:27:31.477Z,8.23
2024-01-16T23:29:57.962Z,10.03
2024-01-16T23:32:26.224Z,6.75
2024-01-16T23:34:52.757Z,4.90
2024-01-16T23:37:24.970Z,9.75
2024-01-16T23:39:53.024Z,6.40
2024-01-16T23:42:20.345Z,6.80
2024-01-16T23:44:48.037Z,6.03
2024-01-16T23:47:14.837Z,0.90
2024-01-16T23:49:41.999Z,3.38
2024-01-16T23:52:11.462Z,0.82
2024-01-16T23:54:37.970Z,1.63
2024-01-16T23:57:05.074Z,4.80
2024-01-16T23:59:32.123Z,4.07
